Time;durP1;ratioP1;P1;durP2;ratioP2;P2;SDS_P1;SDS_P2;PMS_P1;PMS_P2;Temp;Humidity;BMP_temperature;BMP_pressure;BME280_temperature;BME280_humidity;BME280_pressure;Samples;Min_cycle;Max_cycle;Signal;HPM_P1;HPM_P2
2022/08/11 00:00:07;;;;;;;2.53;1.90;;;17.40;60.40;17.40;101421.00;;;;5015652;27;108932;-62
2022/08/11 00:02:42;;;;;;;1.83;1.73;;;17.30;60.60;17.30;101421.00;;;;5017632;27;87695;-62
2022/08/11 00:05:15;;;;;;;2.22;1.88;;;17.30;60.80;17.30;101419.00;;;;5017264;27;87670;-61
2022/08/11 00:07:48;;;;;;;1.67;1.58;;;17.20;60.80;17.20;101425.00;;;;5014280;27;100911;-62
2022/08/11 00:10:21;;;;;;;2.63;1.55;;;17.20;61.00;17.20;101437.00;;;;4996289;28;104818;-62
2022/08/11 00:12:59;;;;;;;2.88;2.17;;;17.10;61.10;17.10;101431.00;;;;4997137;28;88054;-62
2022/08/11 00:15:43;;;;;;;2.03;1.92;;;17.00;61.30;17.00;101426.00;;;;4997341;28;87556;-62
2022/08/11 00:18:11;;;;;;;2.03;1.92;;;17.00;61.50;17.00;101431.00;;;;4999582;27;89370;-62
2022/08/11 00:20:41;;;;;;;4.05;2.50;;;16.90;61.80;17.00;101428.00;;;;5014479;27;88900;-62
2022/08/11 00:23:10;;;;;;;2.05;1.85;;;16.90;62.30;16.90;101435.00;;;;5013752;27;102537;-62
2022/08/11 00:25:42;;;;;;;2.15;1.95;;;16.80;62.40;16.90;101438.00;;;;5013597;27;99543;-61
2022/08/11 00:28:34;;;;;;;5.68;1.52;;;16.80;62.80;16.80;101433.00;;;;5010949;27;103325;-62
2022/08/11 00:31:05;;;;;;;5.18;1.85;;;16.80;63.30;16.70;101427.00;;;;4993900;28;95270;-61
2022/08/11 00:33:43;;;;;;;2.33;2.03;;;16.70;63.40;16.70;101434.00;;;;5012004;27;87739;-62
2022/08/11 00:36:13;;;;;;;3.60;2.38;;;16.60;63.60;16.60;101430.00;;;;5019357;27;100334;-62
2022/08/11 00:38:44;;;;;;;8.40;2.42;;;16.50;63.60;16.60;101426.00;;;;5013952;27;87855;-62
2022/08/11 00:41:38;;;;;;;2.70;2.30;;;16.50;63.90;16.50;101422.00;;;;5016221;27;87809;-61
2022/08/11 00:44:31;;;;;;;2.58;1.92;;;16.40;64.20;16.40;101421.00;;;;5016151;27;88589;-62
2022/08/11 00:47:31;;;;;;;2.63;1.67;;;16.40;64.40;16.30;101427.00;;;;5000104;27;87749;-62
2022/08/11 00:50:25;;;;;;;3.30;2.63;;;16.30;64.80;16.20;101418.00;;;;4996094;27;88857;-62
2022/08/11 00:53:25;;;;;;;1.95;1.75;;;16.20;65.00;16.20;101427.00;;;;4995799;28;88166;-61
2022/08/11 00:56:17;;;;;;;2.17;1.55;;;16.20;65.30;16.10;101429.00;;;;5030765;27;87747;-61
2022/08/11 00:59:36;;;;;;;2.00;1.90;;;16.10;65.40;16.10;101427.00;;;;5015323;27;87670;-62
2022/08/11 01:02:43;;;;;;;2.67;2.05;;;16.10;65.80;16.00;101426.00;;;;5014475;27;87875;-62
2022/08/11 01:05:56;;;;;;;1.75;1.65;;;16.00;66.20;15.90;101419.00;;;;5016913;27;87766;-61
2022/08/11 01:08:48;;;;;;;2.28;2.08;;;15.90;66.60;15.80;101423.00;;;;4981551;27;87843;-62
2022/08/11 01:11:31;;;;;;;1.60;1.50;;;15.80;67.00;15.80;101420.00;;;;4995941;28;87848;-62
2022/08/11 01:14:34;;;;;;;3.05;2.30;;;15.70;67.30;15.70;101408.00;;;;5008883;27;109243;-62
2022/08/11 01:17:12;;;;;;;3.70;2.50;;;15.60;67.60;15.60;101415.00;;;;5017454;27;112345;-62
2022/08/11 01:20:07;;;;;;;4.05;2.28;;;15.60;67.90;15.60;101415.00;;;;5029561;27;98029;-61
2022/08/11 01:23:08;;;;;;;2.65;1.90;;;15.60;68.00;15.60;101410.00;;;;5016299;27;87781;-62
2022/08/11 01:26:09;;;;;;;2.15;1.90;;;15.50;68.20;15.50;101416.00;;;;5016584;27;109503;-61
2022/08/11 01:29:13;;;;;;;2.83;2.47;;;15.50;68.60;15.50;101409.00;;;;5006784;27;88936;-62
2022/08/11 01:32:36;;;;;;;3.53;2.33;;;15.50;69.00;15.40;101411.00;;;;5013963;27;87888;-62
2022/08/11 01:35:33;;;;;;;3.17;2.88;;;15.40;69.30;15.40;101409.00;;;;5010996;27;87084;-62
2022/08/11 01:38:26;;;;;;;1.77;1.67;;;15.30;69.70;15.30;101407.00;;;;5005092;27;88092;-61
2022/08/11 01:45:08;;;;;;;2.10;1.90;;;15.30;70.30;15.20;101423.00;;;;5014006;27;88675;-61
2022/08/11 01:47:53;;;;;;;2.33;2.07;;;15.20;70.40;15.20;101426.00;;;;5016055;27;98917;-62
2022/08/11 01:50:39;;;;;;;3.03;2.73;;;15.20;70.60;15.20;101415.00;;;;4998329;27;87946;-61
2022/08/11 01:53:45;;;;;;;2.43;2.20;;;15.20;70.90;15.10;101418.00;;;;5013427;27;88057;-61
2022/08/11 01:56:57;;;;;;;3.10;2.43;;;15.10;71.20;15.00;101413.00;;;;5013721;27;87756;-62
2022/08/11 01:59:48;;;;;;;2.65;2.33;;;15.10;71.50;15.00;101415.00;;;;4996037;28;88123;-62
2022/08/11 02:02:46;;;;;;;2.03;1.87;;;15.00;71.80;15.00;101415.00;;;;4996192;28;88764;-62
2022/08/11 02:05:46;;;;;;;2.57;2.03;;;14.90;72.10;14.90;101424.00;;;;4996436;28;88581;-62
2022/08/11 02:08:46;;;;;;;3.07;2.60;;;14.90;72.50;14.80;101425.00;;;;4998229;28;87503;-62
2022/08/11 02:11:30;;;;;;;5.97;2.87;;;14.80;73.00;14.80;101419.00;;;;4995880;27;95273;-61
2022/08/11 02:14:48;;;;;;;2.17;1.90;;;14.80;73.40;14.70;101423.00;;;;5012894;27;88984;-62
2022/08/11 02:17:22;;;;;;;2.50;2.30;;;14.60;73.70;14.80;101418.00;;;;4984213;28;88753;-62
2022/08/11 02:23:38;;;;;;;3.37;2.20;;;14.70;74.70;14.70;101427.00;;;;4995339;28;87708;-62
2022/08/11 02:26:25;;;;;;;2.70;2.47;;;14.60;75.00;14.60;101418.00;;;;4995986;28;87795;-62
2022/08/11 02:29:42;;;;;;;2.17;2.07;;;14.60;75.60;14.50;101417.00;;;;4995409;28;109501;-62
2022/08/11 02:36:09;;;;;;;2.40;2.20;;;14.50;76.40;14.40;101432.00;;;;5016444;27;86977;-62
2022/08/11 02:39:13;;;;;;;2.93;2.20;;;14.40;77.30;14.30;101436.00;;;;5015716;27;87748;-61
2022/08/11 02:42:21;;;;;;;3.27;2.27;;;14.40;78.00;14.20;101428.00;;;;5013817;27;101696;-62
2022/08/11 02:45:28;;;;;;;2.67;2.03;;;14.30;78.70;14.20;101432.00;;;;5015550;27;88869;-62
2022/08/11 02:52:00;;;;;;;3.23;2.93;;;14.10;80.70;14.00;101433.00;;;;4956870;28;87717;-62
2022/08/11 02:55:21;;;;;;;4.13;3.07;;;14.00;81.00;13.90;101422.00;;;;4960055;28;87818;-62
2022/08/11 02:58:02;;;;;;;3.50;3.20;;;14.00;81.60;13.90;101426.00;;;;5000947;27;87990;-61
2022/08/11 03:00:50;;;;;;;3.77;2.73;;;13.90;82.20;13.90;101425.00;;;;4995655;27;87788;-61
2022/08/11 03:03:37;;;;;;;2.87;2.60;;;13.80;82.50;13.80;101426.00;;;;4995003;28;89321;-61
2022/08/11 03:06:18;;;;;;;2.20;2.00;;;13.80;83.30;13.80;101427.00;;;;4996077;28;88697;-62
2022/08/11 03:09:07;;;;;;;2.90;2.67;;;13.80;84.00;13.70;101421.00;;;;4997284;28;87737;-62
2022/08/11 03:18:18;;;;;;;3.90;3.57;;;13.70;85.50;13.70;101425.00;;;;4993089;28;88000;-62
2022/08/11 03:21:20;;;;;;;5.50;3.50;;;13.60;85.80;13.60;101426.00;;;;5001346;27;110712;-62
2022/08/11 03:24:18;;;;;;;3.70;2.87;;;13.60;86.10;13.60;101425.00;;;;5014634;27;99785;-60
2022/08/11 03:27:06;;;;;;;3.27;2.53;;;13.60;86.40;13.60;101417.00;;;;5006644;27;88864;-61
2022/08/11 03:30:14;;;;;;;2.90;2.60;;;13.60;86.70;13.50;101424.00;;;;5013817;27;112174;-61
2022/08/11 03:36:18;;;;;;;2.73;2.10;;;13.50;86.90;13.50;101425.00;;;;4996557;27;87120;-61
2022/08/11 03:39:04;;;;;;;3.33;3.03;;;13.50;87.20;13.50;101412.00;;;;4996010;28;88055;-62
2022/08/11 03:41:58;;;;;;;4.03;2.50;;;13.50;87.40;13.50;101425.00;;;;5009189;27;88742;-61
2022/08/11 03:44:55;;;;;;;3.27;2.63;;;13.50;87.60;13.50;101412.00;;;;5014826;27;88655;-61
2022/08/11 03:47:45;;;;;;;4.63;2.60;;;13.40;87.80;13.40;101414.00;;;;5013175;27;88018;-61
2022/08/11 03:50:52;;;;;;;5.00;2.93;;;13.40;88.00;13.40;101409.00;;;;4997205;27;88182;-61
2022/08/11 03:53:58;;;;;;;4.20;2.73;;;13.40;87.90;13.40;101413.00;;;;5016097;27;87812;-62
2022/08/11 03:57:02;;;;;;;3.57;2.87;;;13.40;88.10;13.40;101409.00;;;;4996824;28;87706;-61
2022/08/11 04:00:10;;;;;;;2.70;2.30;;;13.40;88.30;13.40;101406.00;;;;4996144;27;87785;-61
2022/08/11 04:03:09;;;;;;;4.63;3.30;;;13.40;88.50;13.30;101411.00;;;;4994106;28;88240;-62
2022/08/11 04:06:13;;;;;;;3.50;2.73;;;13.40;88.80;13.30;101417.00;;;;4998335;27;88524;-61
2022/08/11 04:08:59;;;;;;;8.73;3.10;;;13.40;89.00;13.40;101423.00;;;;5015219;27;101911;-61
2022/08/11 04:12:17;;;;;;;2.57;2.33;;;13.30;89.40;13.40;101428.00;;;;5002944;27;91494;-61
2022/08/11 04:18:39;;;;;;;3.40;2.80;;;13.40;90.00;13.40;101430.00;;;;4994634;27;87969;-62
2022/08/11 04:21:15;;;;;;;3.17;2.87;;;13.40;90.10;13.50;101423.00;;;;5011290;27;87794;-61
2022/08/11 04:24:31;;;;;;;3.63;2.53;;;13.40;90.10;13.50;101430.00;;;;4995692;28;87563;-62
2022/08/11 04:27:46;;;;;;;4.13;2.77;;;13.50;90.40;13.50;101434.00;;;;4995503;28;88140;-62
2022/08/11 04:30:27;;;;;;;3.57;3.07;;;13.50;90.50;13.60;101426.00;;;;4996577;27;87885;-61
2022/08/11 04:33:33;;;;;;;3.53;3.03;;;13.50;90.70;13.60;101423.00;;;;4993361;27;101443;-62
2022/08/11 04:40:15;;;;;;;2.83;2.60;;;13.60;91.00;13.70;101429.00;;;;4988264;27;88031;-62
2022/08/11 04:43:20;;;;;;;4.50;2.70;;;13.70;91.10;13.90;101430.00;;;;4979035;27;88210;-62
2022/08/11 04:46:13;;;;;;;3.20;2.90;;;13.80;91.10;14.00;101426.00;;;;4991674;27;88662;-62
2022/08/11 05:03:03;;;;;;;3.23;2.53;;;14.60;91.20;14.80;101428.00;;;;5013108;27;87828;-61
2022/08/11 05:06:24;;;;;;;3.00;2.77;;;14.70;91.40;15.10;101435.00;;;;4996514;27;88148;-61
2022/08/11 05:09:42;;;;;;;2.63;2.43;;;14.90;91.40;15.30;101436.00;;;;4950760;27;87720;-61
2022/08/11 05:12:54;;;;;;;3.43;2.63;;;15.20;91.40;15.60;101432.00;;;;5012001;27;105204;-61
2022/08/11 05:35:37;;;;;;;2.45;2.25;;;17.10;90.30;17.60;101459.00;;;;4993543;28;87885;-62
2022/08/11 05:57:33;;;;;;;2.55;2.35;;;19.00;84.20;19.60;101468.00;;;;5010967;27;88508;-62
2022/08/11 06:00:04;;;;;;;4.45;2.95;;;19.30;83.00;19.70;101467.00;;;;5020717;27;100183;-62
2022/08/11 06:02:30;;;;;;;3.13;1.85;;;19.40;82.10;19.90;101475.00;;;;5014526;27;88245;-62
2022/08/11 06:04:57;;;;;;;2.40;2.22;;;19.60;81.40;20.10;101466.00;;;;5012147;27;87233;-62
2022/08/11 06:07:29;;;;;;;1.98;1.60;;;19.80;80.60;20.40;101479.00;;;;5013177;27;87929;-62
2022/08/11 06:09:57;;;;;;;1.88;1.58;;;20.00;79.90;20.60;101479.00;;;;5014222;27;96919;-62
2022/08/11 06:12:31;;;;;;;6.38;2.38;;;20.30;79.40;20.90;101474.00;;;;5008255;27;90029;-62
2022/08/11 06:15:04;;;;;;;2.88;2.63;;;20.50;78.60;21.20;101482.00;;;;5012958;27;88131;-62
2022/08/11 06:17:32;;;;;;;5.47;2.40;;;20.80;77.60;21.40;101483.00;;;;5015670;27;88034;-63
2022/08/11 06:20:03;;;;;;;3.30;2.47;;;21.10;76.70;21.70;101485.00;;;;5016944;27;88041;-62
2022/08/11 06:22:30;;;;;;;1.38;1.25;;;21.30;75.70;21.90;101492.00;;;;5010774;27;107568;-62
2022/08/11 06:24:59;;;;;;;2.92;2.53;;;21.60;74.70;22.20;101487.00;;;;5016043;27;102674;-62
2022/08/11 06:27:29;;;;;;;3.03;2.22;;;21.90;73.70;22.40;101481.00;;;;5007128;27;88170;-62
2022/08/11 06:29:57;;;;;;;4.72;1.85;;;22.10;72.50;22.60;101483.00;;;;4998612;28;95435;-63
2022/08/11 06:32:34;;;;;;;2.88;1.73;;;22.30;71.30;22.90;101492.00;;;;5000405;27;117981;-63
2022/08/11 06:35:12;;;;;;;2.40;1.85;;;22.60;70.50;23.10;101489.00;;;;4997551;28;88344;-63
2022/08/11 06:38:26;;;;;;;3.05;2.13;;;22.80;69.10;23.40;101495.00;;;;4997994;27;96753;-62
2022/08/11 06:41:31;;;;;;;1.88;1.77;;;23.10;68.00;23.60;101488.00;;;;4998800;27;87754;-62
2022/08/11 06:44:12;;;;;;;1.92;1.83;;;23.30;66.50;23.90;101481.00;;;;5012673;27;90729;-63
2022/08/11 06:46:45;;;;;;;2.20;2.03;;;23.60;65.80;24.20;101488.00;;;;4997919;28;108732;-62
2022/08/11 06:52:06;;;;;;;1.45;1.17;;;24.20;63.80;24.90;101482.00;;;;5006472;27;87770;-62
2022/08/11 06:54:40;;;;;;;1.90;1.75;;;24.60;62.60;25.20;101483.00;;;;5015055;27;91534;-64
2022/08/11 07:03:02;;;;;;;1.38;1.17;;;25.50;59.10;26.10;101489.00;;;;4993051;27;87993;-64
2022/08/11 07:05:53;;;;;;;5.28;1.50;;;25.80;58.20;26.40;101492.00;;;;5016560;27;89807;-63
2022/08/11 07:28:54;;;;;;;2.13;1.35;;;26.80;54.30;27.40;101481.00;;;;5003632;27;87834;-64
2022/08/11 07:28:56;;;;;;;2.33;1.27;;;27.70;50.90;28.30;101484.00;;;;4996861;28;88215;-64
2022/08/11 07:31:40;;;;;;;1.38;1.10;;;27.90;50.30;28.60;101481.00;;;;4996755;27;89218;-64
2022/08/11 07:34:24;;;;;;;1.02;0.90;;;28.20;50.00;28.90;101477.00;;;;5014795;27;88680;-64
2022/08/11 07:36:53;;;;;;;1.33;0.98;;;28.50;48.90;29.20;101477.00;;;;5011117;27;87938;-64
2022/08/11 07:39:26;;;;;;;0.90;0.90;;;28.80;47.60;29.30;101465.00;;;;5011324;27;96681;-64
2022/08/11 07:41:55;;;;;;;0.60;0.60;;;29.00;46.70;29.50;101477.00;;;;5011874;27;88003;-65
2022/08/11 07:44:27;;;;;;;1.23;0.98;;;29.20;46.30;29.80;101470.00;;;;5012080;27;87829;-64
2022/08/11 07:52:33;;;;;;;0.70;0.70;;;30.00;44.50;30.60;101471.00;;;;4999493;27;87847;-64
2022/08/11 07:55:05;;;;;;;1.27;0.95;;;30.20;43.60;30.80;101466.00;;;;5023176;27;87803;-64
2022/08/11 08:19:47;;;;;;;5.32;0.90;;;30.70;38.80;31.00;101464.00;;;;5014863;27;87033;-65
2022/08/11 08:22:18;;;;;;;0.85;0.80;;;30.70;39.10;31.10;101467.00;;;;4995968;27;88197;-65
2022/08/11 08:24:45;;;;;;;5.15;0.70;;;30.70;39.00;31.10;101457.00;;;;4995906;28;88054;-65
2022/08/11 08:27:13;;;;;;;0.60;0.60;;;30.70;38.90;31.20;101464.00;;;;5000049;27;96933;-63
2022/08/11 08:32:26;;;;;;;1.33;1.10;;;30.90;38.10;31.30;101459.00;;;;5000486;27;87821;-63
2022/08/11 08:34:57;;;;;;;1.75;1.13;;;31.00;38.20;31.40;101459.00;;;;4995345;28;88558;-64
2022/08/11 08:37:25;;;;;;;1.05;0.93;;;31.00;38.20;31.60;101464.00;;;;5003507;27;87581;-64
2022/08/11 08:39:52;;;;;;;1.42;1.00;;;31.20;38.00;31.70;101456.00;;;;5015892;27;87638;-64
2022/08/11 08:42:31;;;;;;;0.82;0.60;;;31.30;37.40;31.90;101455.00;;;;5016547;27;89056;-63
2022/08/11 08:45:14;;;;;;;0.98;0.95;;;31.50;35.60;31.80;101452.00;;;;5013578;27;97545;-63
2022/08/11 08:47:46;;;;;;;0.80;0.80;;;31.50;35.80;31.60;101451.00;;;;5004385;27;87781;-64
2022/08/11 08:50:18;;;;;;;1.40;0.75;;;31.50;35.40;31.40;101453.00;;;;5010671;27;87806;-64
2022/08/11 08:53:00;;;;;;;1.95;1.00;;;31.20;36.00;31.40;101458.00;;;;4995356;27;88974;-64
2022/08/11 08:55:29;;;;;;;2.28;1.20;;;31.10;35.60;31.30;101450.00;;;;5026035;27;89622;-64
2022/08/11 08:57:59;;;;;;;2.13;0.85;;;31.00;35.70;31.30;101454.00;;;;5010681;27;110084;-64
2022/08/11 09:00:38;;;;;;;1.20;1.00;;;31.00;36.10;31.30;101456.00;;;;5016346;27;87683;-63
2022/08/11 09:03:04;;;;;;;5.40;1.95;;;30.90;35.70;31.10;101450.00;;;;5012979;27;99992;-65
2022/08/11 09:05:30;;;;;;;1.58;0.90;;;30.70;35.90;31.00;101457.00;;;;4995145;27;118298;-64
2022/08/11 09:07:57;;;;;;;3.13;1.00;;;30.60;36.10;31.00;101444.00;;;;5019569;27;103896;-64
2022/08/11 09:10:24;;;;;;;0.70;0.70;;;30.60;36.70;31.00;101438.00;;;;5016587;27;87007;-64
2022/08/11 09:12:50;;;;;;;0.77;0.50;;;30.60;36.60;31.10;101438.00;;;;4999446;27;118132;-65
2022/08/11 09:15:17;;;;;;;1.38;0.98;;;30.70;36.90;31.20;101444.00;;;;5009547;27;114550;-65
2022/08/11 09:17:47;;;;;;;1.05;0.63;;;30.80;36.00;31.20;101439.00;;;;5004650;27;108717;-64
2022/08/11 09:20:25;;;;;;;0.93;0.80;;;30.70;36.40;31.20;101447.00;;;;5015817;27;87756;-64
2022/08/11 09:28:29;;;;;;;1.77;1.05;;;30.90;36.20;31.70;101447.00;;;;5000406;27;87763;-64
2022/08/11 09:30:59;;;;;;;2.63;1.38;;;31.10;36.40;32.10;101443.00;;;;5016500;27;89230;-64
2022/08/11 09:33:26;;;;;;;1.70;0.90;;;31.40;36.30;32.40;101437.00;;;;5013179;27;89279;-64
2022/08/11 09:35:52;;;;;;;1.13;0.80;;;31.80;35.50;32.30;101441.00;;;;5012736;27;110498;-63
2022/08/11 09:41:11;;;;;;;0.77;0.70;;;31.70;34.80;31.90;101455.00;;;;5005207;27;87948;-65
2022/08/11 09:46:28;;;;;;;2.63;0.93;;;31.40;34.90;31.90;101449.00;;;;4995491;27;88260;-64
2022/08/11 09:48:58;;;;;;;0.98;0.93;;;31.50;35.10;32.00;101451.00;;;;5001017;27;87651;-64
2022/08/11 09:51:29;;;;;;;0.68;0.50;;;31.50;34.90;32.10;101449.00;;;;5008151;27;87875;-64
2022/08/11 09:53:57;;;;;;;0.95;0.75;;;31.50;34.70;31.90;101448.00;;;;5015869;27;91393;-65
2022/08/11 09:59:09;;;;;;;0.60;0.60;;;31.30;33.70;31.00;101437.00;;;;5015468;27;87747;-64
2022/08/11 10:01:44;;;;;;;0.77;0.60;;;30.80;33.80;30.90;101432.00;;;;5008335;27;86967;-64
2022/08/11 10:04:33;;;;;;;1.02;0.93;;;30.50;34.50;31.00;101446.00;;;;5015864;27;105124;-64
2022/08/11 10:07:02;;;;;;;2.40;1.15;;;30.50;35.20;31.30;101444.00;;;;5016232;27;87979;-65
2022/08/11 10:09:37;;;;;;;1.45;1.23;;;30.70;35.20;31.50;101446.00;;;;5017727;27;88484;-64
2022/08/11 10:12:08;;;;;;;0.98;0.88;;;30.90;34.80;31.80;101439.00;;;;5017862;27;98204;-64
2022/08/11 10:17:31;;;;;;;0.70;0.50;;;31.30;34.10;32.50;101430.00;;;;5010187;27;87847;-64
2022/08/11 10:19:57;;;;;;;1.95;1.10;;;31.70;34.40;32.90;101429.00;;;;5013653;27;87821;-65
2022/08/11 10:27:59;;;;;;;0.77;0.77;;;32.70;33.30;33.80;101416.00;;;;5009658;27;87341;-64
2022/08/11 10:36:00;;;;;;;1.25;1.15;;;33.10;32.00;33.80;101410.00;;;;4997690;28;89016;-64
2022/08/11 10:38:27;;;;;;;0.98;0.82;;;33.10;32.20;34.20;101407.00;;;;4997962;27;90218;-64
2022/08/11 10:43:40;;;;;;;2.78;0.77;;;33.70;31.60;34.90;101411.00;;;;4997454;28;87756;-65
2022/08/11 10:48:57;;;;;;;1.58;1.17;;;34.10;30.70;34.60;101403.00;;;;5015583;27;87959;-65
2022/08/11 10:59:44;;;;;;;2.13;0.82;;;34.00;30.10;34.70;101391.00;;;;5015588;27;87999;-64
2022/08/11 11:02:13;;;;;;;1.17;1.08;;;34.00;30.00;34.70;101391.00;;;;5017286;27;88664;-64
2022/08/11 11:04:57;;;;;;;2.70;0.98;;;34.10;30.00;34.90;101385.00;;;;5017600;27;87514;-64
2022/08/11 11:07:55;;;;;;;1.13;0.63;;;34.20;29.80;35.10;101382.00;;;;5014920;27;88043;-65
2022/08/11 11:10:21;;;;;;;0.80;0.57;;;34.30;30.00;35.40;101382.00;;;;5017363;27;89173;-65
2022/08/11 11:18:34;;;;;;;0.40;0.40;;;35.50;28.60;36.40;101376.00;;;;5015895;27;88343;-64
2022/08/11 11:21:14;;;;;;;1.42;0.70;;;35.60;28.60;36.70;101373.00;;;;5015642;27;87847;-65
2022/08/11 11:24:36;;;;;;;0.60;0.50;;;35.80;28.40;36.90;101369.00;;;;5014546;27;87984;-64
2022/08/11 11:27:22;;;;;;;0.60;0.60;;;36.00;28.10;37.00;101370.00;;;;5009545;27;87892;-65
2022/08/11 11:30:02;;;;;;;0.82;0.82;;;36.20;27.70;36.70;101364.00;;;;5010289;27;104178;-65
2022/08/11 11:32:47;;;;;;;0.40;0.40;;;36.10;26.60;36.20;101364.00;;;;5002715;27;89704;-65
2022/08/11 11:35:25;;;;;;;1.13;0.57;;;35.70;26.80;36.10;101368.00;;;;4999820;27;87585;-65
2022/08/11 11:37:52;;;;;;;0.55;0.45;;;35.50;27.00;35.90;101358.00;;;;5001711;27;87725;-65
2022/08/11 11:40:21;;;;;;;1.98;0.82;;;35.30;27.00;35.90;101361.00;;;;4999075;27;111888;-64
2022/08/11 11:42:50;;;;;;;0.82;0.60;;;35.20;27.00;35.90;101358.00;;;;5016357;27;89987;-65
2022/08/11 11:45:19;;;;;;;1.10;0.52;;;35.20;26.70;36.00;101355.00;;;;5017129;27;87709;-64
2022/08/11 11:47:51;;;;;;;1.23;0.88;;;35.20;26.70;36.10;101359.00;;;;5004306;27;87346;-65
2022/08/11 11:50:34;;;;;;;1.55;0.65;;;35.30;26.60;36.20;101352.00;;;;5010987;27;108433;-64
2022/08/11 11:53:06;;;;;;;1.17;0.70;;;35.40;26.80;36.20;101347.00;;;;5010640;27;107593;-65
2022/08/11 11:55:33;;;;;;;1.40;0.68;;;35.40;26.40;36.20;101358.00;;;;5015726;27;89086;-64
2022/08/11 12:03:33;;;;;;;1.23;0.45;;;35.60;26.60;36.50;101344.00;;;;5022656;27;87797;-65
2022/08/11 12:05:59;;;;;;;0.80;0.30;;;35.80;25.50;36.50;101350.00;;;;5008663;27;99864;-66
2022/08/11 12:08:26;;;;;;;0.32;0.30;;;35.70;25.80;36.30;101344.00;;;;5010911;27;109123;-66
2022/08/11 12:13:46;;;;;;;0.40;0.40;;;35.40;25.40;35.80;101338.00;;;;4995864;28;87728;-65
2022/08/11 12:16:18;;;;;;;0.32;0.20;;;35.30;25.60;35.50;101330.00;;;;5010454;27;101766;-65
2022/08/11 12:18:50;;;;;;;0.88;0.40;;;34.90;25.80;35.30;101331.00;;;;5013643;27;87851;-65
2022/08/11 12:21:16;;;;;;;3.60;0.70;;;34.70;26.10;35.30;101321.00;;;;5010778;27;110100;-64
2022/08/11 12:29:15;;;;;;;0.75;0.43;;;34.70;26.30;35.30;101312.00;;;;4993463;28;87699;-66
2022/08/11 12:31:42;;;;;;;1.08;0.40;;;34.60;26.20;35.20;101311.00;;;;4998205;27;101540;-65
2022/08/11 12:34:14;;;;;;;0.30;0.30;;;34.50;26.00;35.30;101311.00;;;;5015159;27;88645;-65
2022/08/11 12:36:53;;;;;;;0.75;0.47;;;34.60;26.10;35.40;101300.00;;;;5014978;27;87712;-64
2022/08/11 12:45:26;;;;;;;1.88;0.57;;;34.70;25.30;35.30;101311.00;;;;4996049;28;87071;-63
2022/08/11 12:53:26;;;;;;;0.28;0.20;;;34.50;24.90;35.30;101285.00;;;;5012708;27;87938;-65
2022/08/11 12:58:43;;;;;;;0.85;0.38;;;34.60;24.70;35.10;101278.00;;;;4997924;27;87724;-64
2022/08/11 13:06:41;;;;;;;0.38;0.38;;;34.20;24.30;34.50;101262.00;;;;5010367;27;87120;-65
2022/08/11 13:09:09;;;;;;;5.35;2.53;;;33.90;25.10;34.50;101270.00;;;;4992976;28;88234;-65
2022/08/11 13:14:20;;;;;;;0.40;0.28;;;33.80;24.80;34.30;101258.00;;;;4992417;27;88778;-65
2022/08/11 13:19:33;;;;;;;0.55;0.52;;;33.70;25.20;34.60;101253.00;;;;5008586;27;87928;-65
2022/08/11 13:22:01;;;;;;;0.70;0.30;;;33.90;25.30;34.90;101260.00;;;;5008518;27;87966;-65
2022/08/11 13:24:27;;;;;;;0.50;0.45;;;34.10;25.30;35.10;101259.00;;;;5005190;27;88971;-65
2022/08/11 13:26:54;;;;;;;0.52;0.38;;;34.30;24.90;34.90;101258.00;;;;5007681;27;116662;-63
2022/08/11 13:29:26;;;;;;;0.22;0.20;;;34.20;24.50;34.90;101253.00;;;;5006335;27;109303;-63
2022/08/11 13:31:59;;;;;;;0.32;0.30;;;34.20;24.80;34.80;101252.00;;;;5010800;27;87101;-63
2022/08/11 13:34:29;;;;;;;0.43;0.35;;;34.20;24.70;34.80;101252.00;;;;4991979;27;88763;-63
2022/08/11 13:37:00;;;;;;;0.85;0.47;;;34.10;25.30;35.00;101249.00;;;;4992112;27;88136;-63
2022/08/11 13:39:29;;;;;;;0.40;0.40;;;34.20;25.30;35.20;101247.00;;;;4992948;27;88744;-63
2022/08/11 13:41:58;;;;;;;0.20;0.20;;;34.40;25.10;35.30;101244.00;;;;4993666;27;87678;-63
2022/08/11 13:44:26;;;;;;;0.52;0.35;;;34.50;25.00;35.60;101242.00;;;;4990275;27;87955;-62
2022/08/11 13:46:57;;;;;;;1.58;0.40;;;34.70;25.00;35.70;101242.00;;;;4995274;27;98736;-65
2022/08/11 13:49:23;;;;;;;0.50;0.35;;;34.90;24.80;35.50;101242.00;;;;4992692;27;88019;-65
2022/08/11 13:51:49;;;;;;;0.43;0.43;;;34.80;24.30;35.00;101242.00;;;;4990178;27;101307;-64
2022/08/11 13:54:19;;;;;;;0.88;0.50;;;34.60;24.40;34.90;101239.00;;;;4994324;27;100701;-63
2022/08/11 13:56:47;;;;;;;0.30;0.20;;;34.30;24.70;34.90;101224.00;;;;4992166;27;107677;-63
2022/08/11 13:59:19;;;;;;;0.77;0.40;;;34.30;25.10;35.00;101232.00;;;;4990329;27;88009;-62
2022/08/11 14:01:51;;;;;;;0.70;0.20;;;34.30;24.90;35.20;101225.00;;;;4999047;27;88080;-63
2022/08/11 14:04:29;;;;;;;0.30;0.30;;;34.40;25.10;35.50;101230.00;;;;4994662;27;111593;-63
2022/08/11 14:06:59;;;;;;;0.65;0.40;;;34.60;25.20;35.70;101228.00;;;;4999480;27;89909;-63
2022/08/11 14:09:29;;;;;;;0.47;0.47;;;34.80;25.00;35.80;101222.00;;;;5012997;27;87850;-63
2022/08/11 14:15:02;;;;;;;0.45;0.40;;;34.80;24.60;35.60;101216.00;;;;5005478;27;87955;-63
2022/08/11 14:17:32;;;;;;;1.35;0.85;;;34.80;24.90;35.60;101213.00;;;;4998677;27;88640;-63
2022/08/11 14:20:04;;;;;;;0.38;0.38;;;34.90;24.80;35.50;101214.00;;;;4991160;27;103484;-63
2022/08/11 14:22:31;;;;;;;3.72;0.98;;;34.80;24.90;35.50;101212.00;;;;5009320;27;96448;-63
2022/08/11 14:24:57;;;;;;;0.20;0.20;;;34.70;25.20;35.60;101203.00;;;;5008047;27;88764;-63
2022/08/11 14:27:29;;;;;;;1.02;0.40;;;34.80;25.40;35.60;101209.00;;;;4994987;27;118289;-62
2022/08/11 14:29:57;;;;;;;0.70;0.50;;;34.80;25.50;35.40;101196.00;;;;4998873;27;88856;-63
2022/08/11 14:32:24;;;;;;;1.10;0.50;;;34.70;24.90;35.30;101205.00;;;;4994837;27;87757;-63
2022/08/11 14:34:51;;;;;;;0.40;0.28;;;34.60;25.00;35.20;101200.00;;;;4994352;27;106628;-65
2022/08/11 14:37:23;;;;;;;0.85;0.50;;;34.50;25.20;35.10;101198.00;;;;5008429;27;88176;-64
2022/08/11 14:39:56;;;;;;;0.65;0.55;;;34.40;25.40;35.10;101196.00;;;;4991153;27;88336;-65
2022/08/11 14:48:00;;;;;;;0.65;0.35;;;34.30;25.20;34.80;101197.00;;;;4995257;27;86887;-65
2022/08/11 14:50:31;;;;;;;1.67;0.30;;;34.20;25.30;34.80;101198.00;;;;4993713;27;87742;-64
2022/08/11 14:53:05;;;;;;;0.47;0.32;;;34.20;25.40;34.80;101194.00;;;;4993042;27;101010;-64
2022/08/11 14:58:28;;;;;;;0.50;0.40;;;34.20;25.40;34.50;101193.00;;;;4992404;27;88999;-64
2022/08/11 15:00:59;;;;;;;0.38;0.38;;;34.10;25.50;34.40;101185.00;;;;4993419;27;87852;-64
2022/08/11 15:03:28;;;;;;;0.45;0.30;;;33.90;25.50;34.30;101184.00;;;;4998921;27;88013;-64
2022/08/11 15:05:56;;;;;;;0.25;0.20;;;33.80;25.50;34.10;101186.00;;;;4992979;27;88355;-65
2022/08/11 15:14:07;;;;;;;0.73;0.40;;;33.30;25.50;33.40;101172.00;;;;5006210;27;87687;-65
2022/08/11 15:19:28;;;;;;;2.53;0.50;;;32.90;25.90;33.20;101165.00;;;;5008069;27;87859;-65
2022/08/11 15:24:39;;;;;;;0.55;0.38;;;32.70;26.30;33.00;101166.00;;;;4994195;27;88130;-64
2022/08/11 15:38:18;;;;;;;0.52;0.30;;;32.00;27.00;32.20;101140.00;;;;4996333;27;88723;-64
2022/08/11 15:46:34;;;;;;;0.82;0.57;;;31.60;27.50;31.90;101143.00;;;;4989309;27;87717;-64
2022/08/11 15:49:22;;;;;;;0.63;0.52;;;31.50;27.50;31.80;101148.00;;;;4988537;27;89508;-64
2022/08/11 15:51:55;;;;;;;0.63;0.43;;;31.40;27.60;31.70;101143.00;;;;4991097;27;88181;-64
2022/08/11 15:54:27;;;;;;;0.52;0.32;;;31.30;27.70;31.60;101140.00;;;;4993216;27;93575;-64
2022/08/11 15:56:54;;;;;;;0.40;0.40;;;31.20;27.80;31.50;101137.00;;;;4996102;27;88012;-63
2022/08/11 16:05:25;;;;;;;1.02;0.85;;;30.90;28.00;31.20;101129.00;;;;4954867;27;87973;-65
2022/08/11 16:07:52;;;;;;;0.75;0.60;;;30.80;28.10;31.10;101130.00;;;;4956862;27;100885;-64
2022/08/11 16:10:22;;;;;;;0.68;0.63;;;30.80;28.20;31.10;101126.00;;;;4965851;27;115977;-64
2022/08/11 16:18:41;;;;;;;0.63;0.60;;;30.60;28.30;30.80;101122.00;;;;4988068;27;88142;-66